Scio, Michigan
Current Conditions -  °F | °C
As of 6:53 AM on Friday 28 Nov 2014 (Local Time) from KARB Reporting Station
Few Clouds Few Clouds  
Wind Chill: -9°   Ceiling: Unl
Heat Index: -9°   Visibility: 10mi
Dew Point: -13°   Wind: 3mph
Humidity: 77%   Direction: 250°WSW
Pressure: 30.34"   Gusts: NA
Location:  42.3528°N, 83.8974°W
Report Text: KARB 281153Z AUTO 25003KT 10SM FEW120 M09/M13 A3034 RMK AO2 SLP286 T10941128 11061 21128 56000
Loading
Personal Weather Stations






























Interactive Weather Map New forecast layout! Learn more

10-Day Weather Forecast

Advertisements
Track Severe Weather on mobile